This is the latest recevied weather packets stored in our database for station/object DG1GMY-13. If no packets are shown the sender has not sent any weather packets the latest 10 day(s).
| Time | Temp. | Humidity | Pressure | Rain* | Wind** | Luminosity | Snow |
|---|---|---|---|---|---|---|---|
| 1777436417 | 8.33° C | 58% | 1020.1 hPa | - | - | - | - |
| 1777434611 | 8.33° C | 59% | 1020 hPa | - | - | - | - |
| 1777432805 | 8.89° C | 58% | 1019.7 hPa | - | - | - | - |
| 1777430999 | 9.44° C | 57% | 1019.8 hPa | - | - | - | - |
| 1777429193 | 9.44° C | 57% | 1019.5 hPa | - | - | - | - |
| 1777427387 | 10° C | 56% | 1019.3 hPa | - | - | - | - |
| 1777425581 | 11.11° C | 55% | 1019.1 hPa | - | - | - | - |
| 1777423775 | 12.22° C | 52% | 1019 hPa | - | - | - | - |
| 1777421969 | 12.22° C | 53% | 1019 hPa | - | - | - | - |
| 1777420163 | 12.22° C | 54% | 1019 hPa | - | - | - | - |
| 1777418357 | 12.78° C | 54% | 1019.1 hPa | - | - | - | - |
| 1777416551 | 13.33° C | 52% | 1019 hPa | - | - | - | - |
| 1777414745 | 13.89° C | 50% | 1018.8 hPa | - | - | - | - |
| 1777412940 | 14.44° C | 46% | 1018.4 hPa | - | - | - | - |
| 1777411134 | 14.44° C | 45% | 1018.2 hPa | - | - | - | - |
| 1777409328 | 15.56° C | 41% | 1018.1 hPa | - | - | - | - |
| 1777407522 | 15.56° C | 41% | 1017.9 hPa | - | - | - | - |
| 1777405716 | 15.56° C | 43% | 1017.8 hPa | - | - | - | - |
| 1777403910 | 16.11° C | 42% | 1017.5 hPa | - | - | - | - |
| 1777402104 | 16.67° C | 40% | 1017.1 hPa | - | - | - | - |
| 1777400299 | 17.22° C | 40% | 1016.8 hPa | - | - | - | - |
| 1777398492 | 18.33° C | 40% | 1016.6 hPa | - | - | - | - |
| 1777396686 | 18.89° C | 38% | 1016.3 hPa | - | - | - | - |
| 1777394880 | 19.44° C | 36% | 1016.2 hPa | - | - | - | - |
| 1777393074 | 20.56° C | 33% | 1016.1 hPa | - | - | - | - |
* Rain since midnight (hover to see other rain measurements)
** Current wind speed in m/s (hover to see current wind gust speed)